sensor_id;sensor_type;location;lat;lon;timestamp;temperature;humidity
11619;DHT22;5865;48.776;9.280;2023-04-03T00:00:11;2.80;99.90
11619;DHT22;5865;48.776;9.280;2023-04-03T00:05:33;2.50;99.90
11619;DHT22;5865;48.776;9.280;2023-04-03T00:29:56;2.60;99.90
11619;DHT22;5865;48.776;9.280;2023-04-03T00:32:37;2.60;99.90
11619;DHT22;5865;48.776;9.280;2023-04-03T00:35:19;2.70;99.90
11619;DHT22;5865;48.776;9.280;2023-04-03T00:38:00;2.70;99.90
11619;DHT22;5865;48.776;9.280;2023-04-03T00:40:43;2.70;99.90
11619;DHT22;5865;48.776;9.280;2023-04-03T00:43:15;2.60;99.90
11619;DHT22;5865;48.776;9.280;2023-04-03T01:01:43;2.80;99.90
11619;DHT22;5865;48.776;9.280;2023-04-03T01:07:10;2.70;99.90
11619;DHT22;5865;48.776;9.280;2023-04-03T01:09:53;2.70;99.90
11619;DHT22;5865;48.776;9.280;2023-04-03T01:12:38;3.50;99.90
11619;DHT22;5865;48.776;9.280;2023-04-03T01:15:21;2.80;99.90
11619;DHT22;5865;48.776;9.280;2023-04-03T02:14:21;3.00;99.90
11619;DHT22;5865;48.776;9.280;2023-04-03T02:16:53;3.00;99.90
11619;DHT22;5865;48.776;9.280;2023-04-03T02:19:34;3.00;99.90
11619;DHT22;5865;48.776;9.280;2023-04-03T02:22:15;3.00;99.90
11619;DHT22;5865;48.776;9.280;2023-04-03T03:02:54;3.20;99.90
11619;DHT22;5865;48.776;9.280;2023-04-03T03:08:16;3.10;99.90
11619;DHT22;5865;48.776;9.280;2023-04-03T04:22:15;3.50;99.90
11619;DHT22;5865;48.776;9.280;2023-04-03T04:30:10;3.20;99.90
11619;DHT22;5865;48.776;9.280;2023-04-03T04:32:51;3.10;99.90
11619;DHT22;5865;48.776;9.280;2023-04-03T04:45:13;2.90;99.90
11619;DHT22;5865;48.776;9.280;2023-04-03T04:47:55;2.90;99.90
11619;DHT22;5865;48.776;9.280;2023-04-03T04:53:06;2.80;99.90
11619;DHT22;5865;48.776;9.280;2023-04-03T04:55:47;2.80;99.90
11619;DHT22;5865;48.776;9.280;2023-04-03T05:07:51;2.90;99.90
11619;DHT22;5865;48.776;9.280;2023-04-03T05:13:03;2.90;99.90
11619;DHT22;5865;48.776;9.280;2023-04-03T05:18:25;2.90;99.90
11619;DHT22;5865;48.776;9.280;2023-04-03T05:23:54;3.10;99.90
11619;DHT22;5865;48.776;9.280;2023-04-03T05:29:20;3.20;99.90
11619;DHT22;5865;48.776;9.280;2023-04-03T05:37:30;3.30;99.90
11619;DHT22;5865;48.776;9.280;2023-04-03T05:46:51;4.00;99.90
11619;DHT22;5865;48.776;9.280;2023-04-03T05:52:22;3.40;99.90
11619;DHT22;5865;48.776;9.280;2023-04-03T09:26:24;7.10;99.90
11619;DHT22;5865;48.776;9.280;2023-04-03T09:28:55;6.70;99.90
11619;DHT22;5865;48.776;9.280;2023-04-03T09:31:24;6.90;99.90
11619;DHT22;5865;48.776;9.280;2023-04-03T09:33:55;6.80;99.90
11619;DHT22;5865;48.776;9.280;2023-04-03T09:36:42;7.00;99.90
11619;DHT22;5865;48.776;9.280;2023-04-03T09:39:12;7.20;99.90
11619;DHT22;5865;48.776;9.280;2023-04-03T09:41:42;7.50;99.90
11619;DHT22;5865;48.776;9.280;2023-04-03T09:44:23;7.40;99.90
11619;DHT22;5865;48.776;9.280;2023-04-03T09:54:35;7.40;99.90
11619;DHT22;5865;48.776;9.280;2023-04-03T09:57:08;7.40;99.90
11619;DHT22;5865;48.776;9.280;2023-04-03T09:59:37;7.40;99.90
11619;DHT22;5865;48.776;9.280;2023-04-03T10:02:22;7.10;99.90
11619;DHT22;5865;48.776;9.280;2023-04-03T10:07:30;9.10;99.90
11619;DHT22;5865;48.776;9.280;2023-04-03T10:09:59;7.70;99.90
11619;DHT22;5865;48.776;9.280;2023-04-03T10:12:30;7.70;99.90
11619;DHT22;5865;48.776;9.280;2023-04-03T10:14:58;8.40;99.90
11619;DHT22;5865;48.776;9.280;2023-04-03T10:17:39;8.40;99.90
11619;DHT22;5865;48.776;9.280;2023-04-03T10:20:22;8.50;99.90
11619;DHT22;5865;48.776;9.280;2023-04-03T10:23:00;7.60;99.90
11619;DHT22;5865;48.776;9.280;2023-04-03T10:25:33;7.30;99.90
11619;DHT22;5865;48.776;9.280;2023-04-03T10:31:34;7.30;99.90
11619;DHT22;5865;48.776;9.280;2023-04-03T10:34:21;7.00;99.90
11619;DHT22;5865;48.776;9.280;2023-04-03T10:36:58;7.40;99.90
11619;DHT22;5865;48.776;9.280;2023-04-03T10:39:32;7.80;99.90
11619;DHT22;5865;48.776;9.280;2023-04-03T10:42:06;7.70;99.90
11619;DHT22;5865;48.776;9.280;2023-04-03T10:54:24;7.60;99.90
11619;DHT22;5865;48.776;9.280;2023-04-03T10:57:08;7.30;99.90
11619;DHT22;5865;48.776;9.280;2023-04-03T10:59:38;7.60;99.90
11619;DHT22;5865;48.776;9.280;2023-04-03T11:02:16;7.30;99.90
11619;DHT22;5865;48.776;9.280;2023-04-03T11:04:47;7.30;99.90
11619;DHT22;5865;48.776;9.280;2023-04-03T11:07:17;7.70;99.90
11619;DHT22;5865;48.776;9.280;2023-04-03T11:09:50;7.50;99.90
11619;DHT22;5865;48.776;9.280;2023-04-03T11:12:23;7.30;99.90
11619;DHT22;5865;48.776;9.280;2023-04-03T11:14:53;7.50;99.90
11619;DHT22;5865;48.776;9.280;2023-04-03T11:17:28;7.30;99.90
11619;DHT22;5865;48.776;9.280;2023-04-03T11:20:02;7.40;99.90
11619;DHT22;5865;48.776;9.280;2023-04-03T11:22:34;7.60;99.90
11619;DHT22;5865;48.776;9.280;2023-04-03T11:25:14;7.50;99.90
11619;DHT22;5865;48.776;9.280;2023-04-03T11:27:48;7.80;99.30
11619;DHT22;5865;48.776;9.280;2023-04-03T11:30:19;7.90;99.20
11619;DHT22;5865;48.776;9.280;2023-04-03T11:33:19;7.90;99.90
11619;DHT22;5865;48.776;9.280;2023-04-03T11:35:50;8.30;96.80
11619;DHT22;5865;48.776;9.280;2023-04-03T11:38:22;8.20;96.00
11619;DHT22;5865;48.776;9.280;2023-04-03T11:43:23;8.00;96.00
11619;DHT22;5865;48.776;9.280;2023-04-03T11:45:54;7.40;97.90
11619;DHT22;5865;48.776;9.280;2023-04-03T11:48:50;7.20;98.10
11619;DHT22;5865;48.776;9.280;2023-04-03T11:51:41;7.30;97.90
11619;DHT22;5865;48.776;9.280;2023-04-03T11:54:42;7.60;97.90
11619;DHT22;5865;48.776;9.280;2023-04-03T11:57:49;7.40;97.60
11619;DHT22;5865;48.776;9.280;2023-04-03T12:00:54;7.20;97.20
11619;DHT22;5865;48.776;9.280;2023-04-03T12:09:33;7.30;97.50
11619;DHT22;5865;48.776;9.280;2023-04-03T12:12:28;7.20;98.40
11619;DHT22;5865;48.776;9.280;2023-04-03T12:17:26;7.60;96.70
11619;DHT22;5865;48.776;9.280;2023-04-03T12:19:54;7.50;98.00
11619;DHT22;5865;48.776;9.280;2023-04-03T12:24:50;7.90;96.60
11619;DHT22;5865;48.776;9.280;2023-04-03T12:27:27;8.00;97.40
11619;DHT22;5865;48.776;9.280;2023-04-03T12:33:04;7.40;96.90
11619;DHT22;5865;48.776;9.280;2023-04-03T12:35:39;7.30;97.10
11619;DHT22;5865;48.776;9.280;2023-04-03T12:41:28;7.20;99.90
11619;DHT22;5865;48.776;9.280;2023-04-03T12:44:09;7.70;97.50
11619;DHT22;5865;48.776;9.280;2023-04-03T12:46:43;8.10;97.40
11619;DHT22;5865;48.776;9.280;2023-04-03T12:51:46;8.40;96.20
11619;DHT22;5865;48.776;9.280;2023-04-03T12:54:16;8.80;96.20
11619;DHT22;5865;48.776;9.280;2023-04-03T12:59:18;9.90;94.10
11619;DHT22;5865;48.776;9.280;2023-04-03T13:01:53;10.10;92.40
11619;DHT22;5865;48.776;9.280;2023-04-03T13:06:48;8.90;94.50
11619;DHT22;5865;48.776;9.280;2023-04-03T13:09:20;9.00;95.70
11619;DHT22;5865;48.776;9.280;2023-04-03T13:11:49;9.00;95.80
11619;DHT22;5865;48.776;9.280;2023-04-03T13:14:20;9.10;93.50
11619;DHT22;5865;48.776;9.280;2023-04-03T13:19:24;7.70;95.60
11619;DHT22;5865;48.776;9.280;2023-04-03T13:21:55;8.40;95.20
11619;DHT22;5865;48.776;9.280;2023-04-03T13:33:01;9.90;92.40
11619;DHT22;5865;48.776;9.280;2023-04-03T13:35:39;10.30;90.10
11619;DHT22;5865;48.776;9.280;2023-04-03T13:38:23;10.40;89.60
11619;DHT22;5865;48.776;9.280;2023-04-03T13:40:51;9.50;90.40
11619;DHT22;5865;48.776;9.280;2023-04-03T13:43:22;9.30;89.70
11619;DHT22;5865;48.776;9.280;2023-04-03T13:46:00;8.80;90.30
11619;DHT22;5865;48.776;9.280;2023-04-03T13:48:38;8.60;91.50
11619;DHT22;5865;48.776;9.280;2023-04-03T13:51:16;8.70;91.20
11619;DHT22;5865;48.776;9.280;2023-04-03T13:56:32;9.90;89.00
11619;DHT22;5865;48.776;9.280;2023-04-03T13:59:22;9.70;83.30
11619;DHT22;5865;48.776;9.280;2023-04-03T14:01:53;9.70;83.60
11619;DHT22;5865;48.776;9.280;2023-04-03T14:04:24;8.80;87.70
11619;DHT22;5865;48.776;9.280;2023-04-03T14:06:55;8.60;87.70
11619;DHT22;5865;48.776;9.280;2023-04-03T14:09:23;8.70;88.30
11619;DHT22;5865;48.776;9.280;2023-04-03T14:14:23;8.50;90.10
11619;DHT22;5865;48.776;9.280;2023-04-03T14:19:27;8.40;90.40
11619;DHT22;5865;48.776;9.280;2023-04-03T14:21:55;8.80;90.60
11619;DHT22;5865;48.776;9.280;2023-04-03T14:24:23;8.80;88.10
11619;DHT22;5865;48.776;9.280;2023-04-03T14:26:51;10.00;86.10
11619;DHT22;5865;48.776;9.280;2023-04-03T14:29:21;11.70;80.40
11619;DHT22;5865;48.776;9.280;2023-04-03T14:31:49;11.80;68.40
11619;DHT22;5865;48.776;9.280;2023-04-03T14:34:17;11.80;68.60
11619;DHT22;5865;48.776;9.280;2023-04-03T14:39:18;10.80;72.80
11619;DHT22;5865;48.776;9.280;2023-04-03T14:41:45;10.20;75.40
11619;DHT22;5865;48.776;9.280;2023-04-03T14:44:12;9.00;80.30
11619;DHT22;5865;48.776;9.280;2023-04-03T14:46:42;8.30;86.30
11619;DHT22;5865;48.776;9.280;2023-04-03T14:51:41;8.50;84.70
11619;DHT22;5865;48.776;9.280;2023-04-03T14:54:14;8.20;85.70
11619;DHT22;5865;48.776;9.280;2023-04-03T14:56:42;8.20;84.40
11619;DHT22;5865;48.776;9.280;2023-04-03T14:59:12;8.30;86.20
11619;DHT22;5865;48.776;9.280;2023-04-03T15:04:12;9.10;82.00
11619;DHT22;5865;48.776;9.280;2023-04-03T15:06:40;9.30;81.50
11619;DHT22;5865;48.776;9.280;2023-04-03T15:09:19;9.30;82.00
11619;DHT22;5865;48.776;9.280;2023-04-03T15:11:48;9.40;78.50
11619;DHT22;5865;48.776;9.280;2023-04-03T15:16:48;10.20;77.90
11619;DHT22;5865;48.776;9.280;2023-04-03T15:21:42;8.70;80.70
11619;DHT22;5865;48.776;9.280;2023-04-03T15:24:11;8.10;81.70
11619;DHT22;5865;48.776;9.280;2023-04-03T15:26:38;7.80;80.30
11619;DHT22;5865;48.776;9.280;2023-04-03T15:31:33;7.40;81.60
11619;DHT22;5865;48.776;9.280;2023-04-03T15:34:00;7.30;84.10
11619;DHT22;5865;48.776;9.280;2023-04-03T15:38:55;7.40;83.60
11619;DHT22;5865;48.776;9.280;2023-04-03T15:41:23;7.70;85.20
11619;DHT22;5865;48.776;9.280;2023-04-03T15:43:51;7.60;85.70
11619;DHT22;5865;48.776;9.280;2023-04-03T15:53:42;7.60;86.50
11619;DHT22;5865;48.776;9.280;2023-04-03T15:56:10;8.30;86.70
11619;DHT22;5865;48.776;9.280;2023-04-03T15:58:39;8.30;81.00
11619;DHT22;5865;48.776;9.280;2023-04-03T16:01:09;8.30;80.70
11619;DHT22;5865;48.776;9.280;2023-04-03T16:03:40;8.30;77.80
11619;DHT22;5865;48.776;9.280;2023-04-03T16:06:11;8.40;76.00
11619;DHT22;5865;48.776;9.280;2023-04-03T16:11:05;8.10;77.00
11619;DHT22;5865;48.776;9.280;2023-04-03T16:16:02;7.00;81.10
11619;DHT22;5865;48.776;9.280;2023-04-03T16:18:31;6.90;82.10
11619;DHT22;5865;48.776;9.280;2023-04-03T16:23:25;7.00;81.60
11619;DHT22;5865;48.776;9.280;2023-04-03T16:25:54;7.50;78.60
11619;DHT22;5865;48.776;9.280;2023-04-03T16:28:21;7.60;78.30
11619;DHT22;5865;48.776;9.280;2023-04-03T16:30:49;7.70;76.70
11619;DHT22;5865;48.776;9.280;2023-04-03T16:33:18;7.60;77.50
11619;DHT22;5865;48.776;9.280;2023-04-03T16:35:48;7.50;77.90
11619;DHT22;5865;48.776;9.280;2023-04-03T16:38:15;7.50;79.20
11619;DHT22;5865;48.776;9.280;2023-04-03T16:40:42;7.60;80.10
11619;DHT22;5865;48.776;9.280;2023-04-03T16:45:37;7.20;82.40
11619;DHT22;5865;48.776;9.280;2023-04-03T16:48:04;7.20;81.90
11619;DHT22;5865;48.776;9.280;2023-04-03T16:50:33;7.10;82.70
11619;DHT22;5865;48.776;9.280;2023-04-03T16:53:00;7.30;81.60
11619;DHT22;5865;48.776;9.280;2023-04-03T16:55:28;7.50;80.40
11619;DHT22;5865;48.776;9.280;2023-04-03T16:57:55;7.60;81.20
11619;DHT22;5865;48.776;9.280;2023-04-03T17:00:22;7.50;80.70
11619;DHT22;5865;48.776;9.280;2023-04-03T17:02:49;7.20;83.00
11619;DHT22;5865;48.776;9.280;2023-04-03T17:05:17;7.00;84.70
11619;DHT22;5865;48.776;9.280;2023-04-03T17:07:46;7.00;85.40
11619;DHT22;5865;48.776;9.280;2023-04-03T17:10:13;7.00;84.20
11619;DHT22;5865;48.776;9.280;2023-04-03T17:12:41;7.00;83.50
11619;DHT22;5865;48.776;9.280;2023-04-03T17:15:09;6.80;84.80
11619;DHT22;5865;48.776;9.280;2023-04-03T17:17:36;6.60;86.30
11619;DHT22;5865;48.776;9.280;2023-04-03T17:20:04;6.50;85.70
11619;DHT22;5865;48.776;9.280;2023-04-03T17:22:31;6.50;85.10
11619;DHT22;5865;48.776;9.280;2023-04-03T17:25:00;6.40;85.10
11619;DHT22;5865;48.776;9.280;2023-04-03T17:27:27;6.30;86.60
11619;DHT22;5865;48.776;9.280;2023-04-03T17:32:24;6.00;85.50
11619;DHT22;5865;48.776;9.280;2023-04-03T17:34:52;6.00;85.80
11619;DHT22;5865;48.776;9.280;2023-04-03T17:37:19;5.80;85.40
11619;DHT22;5865;48.776;9.280;2023-04-03T17:39:47;5.80;87.70
11619;DHT22;5865;48.776;9.280;2023-04-03T17:42:19;5.70;88.40
11619;DHT22;5865;48.776;9.280;2023-04-03T17:44:46;5.70;87.70
11619;DHT22;5865;48.776;9.280;2023-04-03T17:49:41;5.60;89.20
11619;DHT22;5865;48.776;9.280;2023-04-03T17:52:08;5.60;89.80
11619;DHT22;5865;48.776;9.280;2023-04-03T17:54:35;5.50;88.20
11619;DHT22;5865;48.776;9.280;2023-04-03T17:57:03;5.30;89.10
11619;DHT22;5865;48.776;9.280;2023-04-03T17:59:31;5.30;89.20
11619;DHT22;5865;48.776;9.280;2023-04-03T18:01:58;5.30;89.40
11619;DHT22;5865;48.776;9.280;2023-04-03T18:04:25;5.20;90.60
11619;DHT22;5865;48.776;9.280;2023-04-03T18:09:26;5.10;92.10
11619;DHT22;5865;48.776;9.280;2023-04-03T18:12:02;4.90;92.00
11619;DHT22;5865;48.776;9.280;2023-04-03T18:14:36;4.80;91.90
11619;DHT22;5865;48.776;9.280;2023-04-03T18:22:04;4.90;92.50
11619;DHT22;5865;48.776;9.280;2023-04-03T18:24:33;5.00;91.60
11619;DHT22;5865;48.776;9.280;2023-04-03T18:27:05;5.10;90.90
11619;DHT22;5865;48.776;9.280;2023-04-03T18:29:36;5.10;91.40
11619;DHT22;5865;48.776;9.280;2023-04-03T18:34:33;5.00;92.10
11619;DHT22;5865;48.776;9.280;2023-04-03T18:37:01;4.80;92.00
11619;DHT22;5865;48.776;9.280;2023-04-03T18:39:28;4.70;92.00
11619;DHT22;5865;48.776;9.280;2023-04-03T18:41:58;4.50;92.40
11619;DHT22;5865;48.776;9.280;2023-04-03T18:44:26;4.40;92.70
11619;DHT22;5865;48.776;9.280;2023-04-03T18:47:04;4.20;93.90
11619;DHT22;5865;48.776;9.280;2023-04-03T18:49:33;4.20;93.90
11619;DHT22;5865;48.776;9.280;2023-04-03T18:54:29;3.90;94.70
11619;DHT22;5865;48.776;9.280;2023-04-03T18:56:56;3.80;96.00
11619;DHT22;5865;48.776;9.280;2023-04-03T18:59:24;3.50;97.40
11619;DHT22;5865;48.776;9.280;2023-04-03T19:01:52;3.50;97.70
11619;DHT22;5865;48.776;9.280;2023-04-03T19:04:21;3.40;98.10
11619;DHT22;5865;48.776;9.280;2023-04-03T19:06:48;3.20;98.90
11619;DHT22;5865;48.776;9.280;2023-04-03T19:11:44;3.40;99.80
11619;DHT22;5865;48.776;9.280;2023-04-03T19:14:11;3.60;99.90
11619;DHT22;5865;48.776;9.280;2023-04-03T19:16:39;3.60;99.90
11619;DHT22;5865;48.776;9.280;2023-04-03T19:19:06;3.50;99.90
11619;DHT22;5865;48.776;9.280;2023-04-03T19:21:34;3.60;99.90
11619;DHT22;5865;48.776;9.280;2023-04-03T19:24:05;3.60;99.90
11619;DHT22;5865;48.776;9.280;2023-04-03T19:26:33;3.80;99.60
11619;DHT22;5865;48.776;9.280;2023-04-03T19:29:02;4.00;99.90
11619;DHT22;5865;48.776;9.280;2023-04-03T19:31:35;4.10;98.50
11619;DHT22;5865;48.776;9.280;2023-04-03T21:28:21;1.70;99.90
11619;DHT22;5865;48.776;9.280;2023-04-03T21:38:13;1.50;99.90
11619;DHT22;5865;48.776;9.280;2023-04-03T21:40:40;1.50;99.90
11619;DHT22;5865;48.776;9.280;2023-04-03T21:45:40;1.50;99.90
11619;DHT22;5865;48.776;9.280;2023-04-03T21:48:08;1.20;99.90
11619;DHT22;5865;48.776;9.280;2023-04-03T21:50:41;1.30;99.90
11619;DHT22;5865;48.776;9.280;2023-04-03T21:53:08;1.40;99.90
11619;DHT22;5865;48.776;9.280;2023-04-03T21:55:35;3.50;99.90
11619;DHT22;5865;48.776;9.280;2023-04-03T22:00:29;1.40;99.90
11619;DHT22;5865;48.776;9.280;2023-04-03T22:07:53;1.30;99.90
11619;DHT22;5865;48.776;9.280;2023-04-03T22:10:21;1.30;99.90
11619;DHT22;5865;48.776;9.280;2023-04-03T22:15:15;1.00;99.90
11619;DHT22;5865;48.776;9.280;2023-04-03T22:20:11;0.90;99.90
11619;DHT22;5865;48.776;9.280;2023-04-03T22:22:38;0.90;99.90
11619;DHT22;5865;48.776;9.280;2023-04-03T22:25:06;0.80;99.90
11619;DHT22;5865;48.776;9.280;2023-04-03T22:32:31;0.90;99.90
11619;DHT22;5865;48.776;9.280;2023-04-03T22:37:32;0.90;99.90
11619;DHT22;5865;48.776;9.280;2023-04-03T22:40:03;1.10;99.90
11619;DHT22;5865;48.776;9.280;2023-04-03T22:42:33;1.10;99.90
11619;DHT22;5865;48.776;9.280;2023-04-03T22:49:56;1.20;99.90
11619;DHT22;5865;48.776;9.280;2023-04-03T22:56:13;1.10;99.90
11619;DHT22;5865;48.776;9.280;2023-04-03T22:58:42;1.10;99.90
11619;DHT22;5865;48.776;9.280;2023-04-03T23:01:10;1.10;99.90
11619;DHT22;5865;48.776;9.280;2023-04-03T23:03:39;1.00;99.90
11619;DHT22;5865;48.776;9.280;2023-04-03T23:06:07;1.10;99.90
11619;DHT22;5865;48.776;9.280;2023-04-03T23:17:28;0.90;99.90
11619;DHT22;5865;48.776;9.280;2023-04-03T23:19:55;0.90;99.90
11619;DHT22;5865;48.776;9.280;2023-04-03T23:24:52;0.80;99.90
11619;DHT22;5865;48.776;9.280;2023-04-03T23:27:19;0.80;99.90
11619;DHT22;5865;48.776;9.280;2023-04-03T23:32:14;0.70;99.90
11619;DHT22;5865;48.776;9.280;2023-04-03T23:39:40;0.70;99.90
11619;DHT22;5865;48.776;9.280;2023-04-03T23:44:36;0.70;99.90
11619;DHT22;5865;48.776;9.280;2023-04-03T23:49:30;0.50;99.90
11619;DHT22;5865;48.776;9.280;2023-04-03T23:51:59;0.50;99.90
11619;DHT22;5865;48.776;9.280;2023-04-03T23:54:27;0.30;99.90
11619;DHT22;5865;48.776;9.280;2023-04-03T23:57:01;0.40;99.90
11619;DHT22;5865;48.776;9.280;2023-04-03T23:59:28;0.40;99.90
